sensor_id;sensor_type;location;lat;lon;timestamp;P1;durP1;ratioP1;P2;durP2;ratioP2
25637;SDS011;13496;51.040;13.680;2023-07-13T00:01:28;2.05;;;1.80;;
25637;SDS011;13496;51.040;13.680;2023-07-13T00:06:30;3.00;;;1.60;;
25637;SDS011;13496;51.040;13.680;2023-07-13T00:11:34;2.38;;;1.83;;
25637;SDS011;13496;51.040;13.680;2023-07-13T00:16:36;1.90;;;1.80;;
25637;SDS011;13496;51.040;13.680;2023-07-13T00:21:39;2.92;;;1.70;;
25637;SDS011;13496;51.040;13.680;2023-07-13T00:26:42;1.67;;;1.58;;
25637;SDS011;13496;51.040;13.680;2023-07-13T00:31:47;4.35;;;1.73;;
25637;SDS011;13496;51.040;13.680;2023-07-13T00:36:48;3.05;;;1.95;;
25637;SDS011;13496;51.040;13.680;2023-07-13T00:41:50;4.93;;;2.42;;
25637;SDS011;13496;51.040;13.680;2023-07-13T00:46:53;7.05;;;3.00;;
25637;SDS011;13496;51.040;13.680;2023-07-13T00:51:58;3.10;;;2.45;;
25637;SDS011;13496;51.040;13.680;2023-07-13T00:57:05;2.53;;;2.30;;
25637;SDS011;13496;51.040;13.680;2023-07-13T01:02:10;4.20;;;2.38;;
25637;SDS011;13496;51.040;13.680;2023-07-13T01:07:12;2.53;;;2.30;;
25637;SDS011;13496;51.040;13.680;2023-07-13T01:12:14;2.88;;;2.40;;
25637;SDS011;13496;51.040;13.680;2023-07-13T01:17:16;2.58;;;2.33;;
25637;SDS011;13496;51.040;13.680;2023-07-13T01:22:18;2.30;;;2.10;;
25637;SDS011;13496;51.040;13.680;2023-07-13T01:27:26;2.60;;;2.22;;
25637;SDS011;13496;51.040;13.680;2023-07-13T01:32:29;3.42;;;2.33;;
25637;SDS011;13496;51.040;13.680;2023-07-13T01:37:32;2.00;;;1.90;;
25637;SDS011;13496;51.040;13.680;2023-07-13T01:42:34;2.33;;;2.08;;
25637;SDS011;13496;51.040;13.680;2023-07-13T01:47:36;2.22;;;2.03;;
25637;SDS011;13496;51.040;13.680;2023-07-13T01:52:38;2.55;;;2.35;;
25637;SDS011;13496;51.040;13.680;2023-07-13T01:57:39;2.42;;;1.85;;
25637;SDS011;13496;51.040;13.680;2023-07-13T02:02:41;2.08;;;1.88;;
25637;SDS011;13496;51.040;13.680;2023-07-13T02:07:45;2.30;;;2.10;;
25637;SDS011;13496;51.040;13.680;2023-07-13T02:12:47;2.00;;;1.90;;
25637;SDS011;13496;51.040;13.680;2023-07-13T02:17:50;2.58;;;2.13;;
25637;SDS011;13496;51.040;13.680;2023-07-13T02:22:52;2.65;;;2.08;;
25637;SDS011;13496;51.040;13.680;2023-07-13T02:27:56;2.72;;;1.95;;
25637;SDS011;13496;51.040;13.680;2023-07-13T02:32:58;2.95;;;2.20;;
25637;SDS011;13496;51.040;13.680;2023-07-13T02:37:59;4.53;;;2.20;;
25637;SDS011;13496;51.040;13.680;2023-07-13T02:43:01;2.65;;;2.30;;
25637;SDS011;13496;51.040;13.680;2023-07-13T02:48:06;3.13;;;2.22;;
25637;SDS011;13496;51.040;13.680;2023-07-13T02:53:08;2.58;;;2.10;;
25637;SDS011;13496;51.040;13.680;2023-07-13T02:58:10;4.43;;;1.90;;
25637;SDS011;13496;51.040;13.680;2023-07-13T03:03:12;2.50;;;2.30;;
25637;SDS011;13496;51.040;13.680;2023-07-13T03:08:15;2.42;;;2.22;;
25637;SDS011;13496;51.040;13.680;2023-07-13T03:13:20;3.25;;;2.13;;
25637;SDS011;13496;51.040;13.680;2023-07-13T03:18:21;4.20;;;2.47;;
25637;SDS011;13496;51.040;13.680;2023-07-13T03:23:23;3.78;;;2.45;;
25637;SDS011;13496;51.040;13.680;2023-07-13T03:28:26;2.50;;;2.30;;
25637;SDS011;13496;51.040;13.680;2023-07-13T03:33:28;2.67;;;2.35;;
25637;SDS011;13496;51.040;13.680;2023-07-13T03:38:30;6.88;;;2.83;;
25637;SDS011;13496;51.040;13.680;2023-07-13T03:43:33;2.20;;;2.00;;
25637;SDS011;13496;51.040;13.680;2023-07-13T03:48:34;2.67;;;2.35;;
25637;SDS011;13496;51.040;13.680;2023-07-13T03:53:41;2.88;;;2.08;;
25637;SDS011;13496;51.040;13.680;2023-07-13T03:58:45;3.83;;;2.28;;
25637;SDS011;13496;51.040;13.680;2023-07-13T04:03:54;3.08;;;2.10;;
25637;SDS011;13496;51.040;13.680;2023-07-13T04:08:59;2.72;;;2.10;;
25637;SDS011;13496;51.040;13.680;2023-07-13T04:14:02;3.55;;;2.55;;
25637;SDS011;13496;51.040;13.680;2023-07-13T04:19:04;3.00;;;2.40;;
25637;SDS011;13496;51.040;13.680;2023-07-13T04:24:06;3.22;;;2.42;;
25637;SDS011;13496;51.040;13.680;2023-07-13T04:29:09;3.20;;;2.33;;
25637;SDS011;13496;51.040;13.680;2023-07-13T04:34:10;2.83;;;2.20;;
25637;SDS011;13496;51.040;13.680;2023-07-13T04:39:12;5.05;;;2.40;;
25637;SDS011;13496;51.040;13.680;2023-07-13T04:44:14;3.92;;;2.30;;
25637;SDS011;13496;51.040;13.680;2023-07-13T04:49:15;3.47;;;1.98;;
25637;SDS011;13496;51.040;13.680;2023-07-13T04:54:17;3.92;;;2.20;;
25637;SDS011;13496;51.040;13.680;2023-07-13T04:59:19;6.10;;;2.50;;
25637;SDS011;13496;51.040;13.680;2023-07-13T05:04:20;2.90;;;2.42;;
25637;SDS011;13496;51.040;13.680;2023-07-13T05:09:22;2.92;;;2.50;;
25637;SDS011;13496;51.040;13.680;2023-07-13T05:14:24;2.53;;;2.22;;
25637;SDS011;13496;51.040;13.680;2023-07-13T05:19:26;3.13;;;2.20;;
25637;SDS011;13496;51.040;13.680;2023-07-13T05:24:28;2.58;;;2.38;;
25637;SDS011;13496;51.040;13.680;2023-07-13T05:29:30;3.00;;;2.30;;
25637;SDS011;13496;51.040;13.680;2023-07-13T05:34:31;2.65;;;2.17;;
25637;SDS011;13496;51.040;13.680;2023-07-13T05:39:33;2.90;;;2.58;;
25637;SDS011;13496;51.040;13.680;2023-07-13T05:44:35;4.65;;;2.15;;
25637;SDS011;13496;51.040;13.680;2023-07-13T05:49:37;4.93;;;2.58;;
25637;SDS011;13496;51.040;13.680;2023-07-13T05:54:38;6.15;;;2.38;;
25637;SDS011;13496;51.040;13.680;2023-07-13T05:59:40;4.80;;;2.70;;
25637;SDS011;13496;51.040;13.680;2023-07-13T06:04:42;8.15;;;2.25;;
25637;SDS011;13496;51.040;13.680;2023-07-13T06:09:43;5.20;;;2.65;;
25637;SDS011;13496;51.040;13.680;2023-07-13T06:14:45;2.78;;;2.33;;
25637;SDS011;13496;51.040;13.680;2023-07-13T06:19:47;4.90;;;2.80;;
25637;SDS011;13496;51.040;13.680;2023-07-13T06:24:49;4.70;;;2.70;;
25637;SDS011;13496;51.040;13.680;2023-07-13T06:29:50;3.85;;;2.83;;
25637;SDS011;13496;51.040;13.680;2023-07-13T06:34:52;2.63;;;2.42;;
25637;SDS011;13496;51.040;13.680;2023-07-13T06:39:54;3.42;;;2.38;;
25637;SDS011;13496;51.040;13.680;2023-07-13T06:44:55;3.00;;;2.50;;
25637;SDS011;13496;51.040;13.680;2023-07-13T06:49:57;3.60;;;2.38;;
25637;SDS011;13496;51.040;13.680;2023-07-13T06:54:59;5.55;;;2.25;;
25637;SDS011;13496;51.040;13.680;2023-07-13T07:00:00;2.58;;;2.25;;
25637;SDS011;13496;51.040;13.680;2023-07-13T07:05:02;5.88;;;2.40;;
25637;SDS011;13496;51.040;13.680;2023-07-13T07:10:04;3.30;;;2.28;;
25637;SDS011;13496;51.040;13.680;2023-07-13T07:15:06;5.00;;;2.28;;
25637;SDS011;13496;51.040;13.680;2023-07-13T07:20:08;3.88;;;2.20;;
25637;SDS011;13496;51.040;13.680;2023-07-13T07:25:10;3.30;;;2.42;;
25637;SDS011;13496;51.040;13.680;2023-07-13T07:30:12;4.80;;;2.22;;
25637;SDS011;13496;51.040;13.680;2023-07-13T07:35:14;6.43;;;2.30;;
25637;SDS011;13496;51.040;13.680;2023-07-13T07:40:16;6.50;;;2.15;;
25637;SDS011;13496;51.040;13.680;2023-07-13T07:45:17;3.08;;;2.08;;
25637;SDS011;13496;51.040;13.680;2023-07-13T07:50:19;3.00;;;2.10;;
25637;SDS011;13496;51.040;13.680;2023-07-13T07:55:21;2.83;;;2.10;;
25637;SDS011;13496;51.040;13.680;2023-07-13T08:00:24;3.58;;;2.08;;
25637;SDS011;13496;51.040;13.680;2023-07-13T08:05:25;4.00;;;1.92;;
25637;SDS011;13496;51.040;13.680;2023-07-13T08:10:27;1.80;;;1.70;;
25637;SDS011;13496;51.040;13.680;2023-07-13T08:15:29;4.65;;;1.88;;
25637;SDS011;13496;51.040;13.680;2023-07-13T08:20:31;2.97;;;1.90;;
25637;SDS011;13496;51.040;13.680;2023-07-13T08:25:32;2.58;;;1.83;;
25637;SDS011;13496;51.040;13.680;2023-07-13T08:30:34;2.95;;;2.10;;
25637;SDS011;13496;51.040;13.680;2023-07-13T08:35:37;2.88;;;2.08;;
25637;SDS011;13496;51.040;13.680;2023-07-13T08:40:39;3.53;;;2.20;;
25637;SDS011;13496;51.040;13.680;2023-07-13T08:45:43;2.28;;;2.08;;
25637;SDS011;13496;51.040;13.680;2023-07-13T08:51:01;2.13;;;1.92;;
25637;SDS011;13496;51.040;13.680;2023-07-13T08:56:23;3.67;;;2.13;;
25637;SDS011;13496;51.040;13.680;2023-07-13T09:01:31;2.47;;;1.90;;
25637;SDS011;13496;51.040;13.680;2023-07-13T09:12:01;2.42;;;2.13;;
25637;SDS011;13496;51.040;13.680;2023-07-13T09:17:41;2.40;;;2.03;;
25637;SDS011;13496;51.040;13.680;2023-07-13T09:22:50;2.72;;;1.90;;
25637;SDS011;13496;51.040;13.680;2023-07-13T09:27:53;3.88;;;2.00;;
25637;SDS011;13496;51.040;13.680;2023-07-13T09:32:58;3.05;;;2.00;;
25637;SDS011;13496;51.040;13.680;2023-07-13T09:38:03;2.33;;;1.92;;
25637;SDS011;13496;51.040;13.680;2023-07-13T09:43:14;2.65;;;2.08;;
25637;SDS011;13496;51.040;13.680;2023-07-13T09:48:18;2.85;;;1.90;;
25637;SDS011;13496;51.040;13.680;2023-07-13T09:53:19;3.92;;;2.13;;
25637;SDS011;13496;51.040;13.680;2023-07-13T09:58:22;4.05;;;2.17;;
25637;SDS011;13496;51.040;13.680;2023-07-13T10:03:34;4.03;;;2.10;;
25637;SDS011;13496;51.040;13.680;2023-07-13T10:08:40;2.40;;;2.15;;
25637;SDS011;13496;51.040;13.680;2023-07-13T10:13:44;2.08;;;1.90;;
25637;SDS011;13496;51.040;13.680;2023-07-13T10:18:53;2.92;;;1.90;;
25637;SDS011;13496;51.040;13.680;2023-07-13T10:24:20;3.45;;;1.73;;
25637;SDS011;13496;51.040;13.680;2023-07-13T10:29:22;3.60;;;1.88;;
25637;SDS011;13496;51.040;13.680;2023-07-13T10:34:27;4.40;;;1.80;;
25637;SDS011;13496;51.040;13.680;2023-07-13T10:39:29;3.40;;;1.80;;
25637;SDS011;13496;51.040;13.680;2023-07-13T10:44:32;3.13;;;1.83;;
25637;SDS011;13496;51.040;13.680;2023-07-13T10:49:35;4.25;;;1.80;;
25637;SDS011;13496;51.040;13.680;2023-07-13T10:54:37;4.20;;;1.52;;
25637;SDS011;13496;51.040;13.680;2023-07-13T10:59:39;1.52;;;1.42;;
25637;SDS011;13496;51.040;13.680;2023-07-13T11:04:44;4.80;;;1.88;;
25637;SDS011;13496;51.040;13.680;2023-07-13T11:09:50;2.17;;;1.52;;
25637;SDS011;13496;51.040;13.680;2023-07-13T11:35:37;3.90;;;2.65;;
25637;SDS011;13496;51.040;13.680;2023-07-13T11:40:46;4.50;;;2.08;;
25637;SDS011;13496;51.040;13.680;2023-07-13T11:45:50;2.75;;;1.90;;
25637;SDS011;13496;51.040;13.680;2023-07-13T11:50:53;2.83;;;1.80;;
25637;SDS011;13496;51.040;13.680;2023-07-13T11:55:58;4.13;;;2.05;;
25637;SDS011;13496;51.040;13.680;2023-07-13T12:01:01;5.15;;;2.10;;
25637;SDS011;13496;51.040;13.680;2023-07-13T12:06:06;5.57;;;2.30;;
25637;SDS011;13496;51.040;13.680;2023-07-13T12:11:25;5.20;;;2.17;;
25637;SDS011;13496;51.040;13.680;2023-07-13T12:16:29;4.20;;;2.03;;
25637;SDS011;13496;51.040;13.680;2023-07-13T12:21:38;5.22;;;2.10;;
25637;SDS011;13496;51.040;13.680;2023-07-13T12:26:41;3.72;;;1.90;;
25637;SDS011;13496;51.040;13.680;2023-07-13T12:31:43;4.45;;;2.10;;
25637;SDS011;13496;51.040;13.680;2023-07-13T12:36:51;4.57;;;1.98;;
25637;SDS011;13496;51.040;13.680;2023-07-13T12:42:09;6.35;;;2.13;;
25637;SDS011;13496;51.040;13.680;2023-07-13T12:47:22;3.97;;;1.95;;
25637;SDS011;13496;51.040;13.680;2023-07-13T12:52:31;2.30;;;2.00;;
25637;SDS011;13496;51.040;13.680;2023-07-13T12:57:38;3.47;;;1.90;;
25637;SDS011;13496;51.040;13.680;2023-07-13T13:02:42;3.78;;;1.80;;
25637;SDS011;13496;51.040;13.680;2023-07-13T13:07:43;3.97;;;1.60;;
25637;SDS011;13496;51.040;13.680;2023-07-13T13:12:48;3.75;;;1.80;;
25637;SDS011;13496;51.040;13.680;2023-07-13T13:17:50;3.90;;;1.77;;
25637;SDS011;13496;51.040;13.680;2023-07-13T13:22:51;3.85;;;1.65;;
25637;SDS011;13496;51.040;13.680;2023-07-13T13:27:53;4.18;;;1.80;;
25637;SDS011;13496;51.040;13.680;2023-07-13T13:32:55;4.10;;;1.48;;
25637;SDS011;13496;51.040;13.680;2023-07-13T13:37:57;2.42;;;1.70;;
25637;SDS011;13496;51.040;13.680;2023-07-13T13:42:58;2.47;;;1.73;;
25637;SDS011;13496;51.040;13.680;2023-07-13T13:48:00;2.55;;;1.58;;
25637;SDS011;13496;51.040;13.680;2023-07-13T13:53:02;3.45;;;1.77;;
25637;SDS011;13496;51.040;13.680;2023-07-13T13:58:04;3.75;;;1.90;;
25637;SDS011;13496;51.040;13.680;2023-07-13T14:03:08;3.65;;;1.58;;
25637;SDS011;13496;51.040;13.680;2023-07-13T14:08:21;2.72;;;1.80;;
25637;SDS011;13496;51.040;13.680;2023-07-13T14:13:28;2.72;;;1.75;;
25637;SDS011;13496;51.040;13.680;2023-07-13T14:18:38;1.90;;;1.63;;
25637;SDS011;13496;51.040;13.680;2023-07-13T14:23:40;6.05;;;1.85;;
25637;SDS011;13496;51.040;13.680;2023-07-13T14:28:43;5.82;;;1.85;;
25637;SDS011;13496;51.040;13.680;2023-07-13T14:33:46;5.47;;;1.73;;
25637;SDS011;13496;51.040;13.680;2023-07-13T14:38:49;4.88;;;1.73;;
25637;SDS011;13496;51.040;13.680;2023-07-13T14:43:51;2.72;;;1.88;;
25637;SDS011;13496;51.040;13.680;2023-07-13T14:48:54;4.80;;;1.98;;
25637;SDS011;13496;51.040;13.680;2023-07-13T14:54:22;11.73;;;2.42;;
25637;SDS011;13496;51.040;13.680;2023-07-13T14:59:24;3.92;;;1.95;;
25637;SDS011;13496;51.040;13.680;2023-07-13T15:04:26;4.10;;;1.83;;
25637;SDS011;13496;51.040;13.680;2023-07-13T15:09:27;2.08;;;1.77;;
25637;SDS011;13496;51.040;13.680;2023-07-13T15:14:32;2.17;;;1.50;;
25637;SDS011;13496;51.040;13.680;2023-07-13T15:19:34;2.10;;;1.60;;
25637;SDS011;13496;51.040;13.680;2023-07-13T15:24:37;3.55;;;1.63;;
25637;SDS011;13496;51.040;13.680;2023-07-13T15:29:39;2.92;;;1.60;;
25637;SDS011;13496;51.040;13.680;2023-07-13T15:34:44;3.08;;;1.38;;
25637;SDS011;13496;51.040;13.680;2023-07-13T15:39:45;10.02;;;1.30;;
25637;SDS011;13496;51.040;13.680;2023-07-13T15:44:47;1.42;;;1.30;;
25637;SDS011;13496;51.040;13.680;2023-07-13T15:49:49;3.17;;;1.30;;
25637;SDS011;13496;51.040;13.680;2023-07-13T15:54:51;1.55;;;1.20;;
25637;SDS011;13496;51.040;13.680;2023-07-13T15:59:53;2.30;;;1.33;;
25637;SDS011;13496;51.040;13.680;2023-07-13T16:04:55;3.55;;;1.20;;
25637;SDS011;13496;51.040;13.680;2023-07-13T16:09:57;1.58;;;1.20;;
25637;SDS011;13496;51.040;13.680;2023-07-13T16:14:59;1.77;;;1.23;;
25637;SDS011;13496;51.040;13.680;2023-07-13T16:20:01;2.65;;;1.20;;
25637;SDS011;13496;51.040;13.680;2023-07-13T16:25:04;2.45;;;1.10;;
25637;SDS011;13496;51.040;13.680;2023-07-13T16:30:16;1.88;;;1.40;;
25637;SDS011;13496;51.040;13.680;2023-07-13T16:35:24;2.85;;;1.38;;
25637;SDS011;13496;51.040;13.680;2023-07-13T16:40:32;3.13;;;1.52;;
25637;SDS011;13496;51.040;13.680;2023-07-13T16:45:35;2.03;;;1.40;;
25637;SDS011;13496;51.040;13.680;2023-07-13T16:50:37;4.40;;;1.80;;
25637;SDS011;13496;51.040;13.680;2023-07-13T16:55:40;3.28;;;1.83;;
25637;SDS011;13496;51.040;13.680;2023-07-13T17:00:41;2.63;;;1.98;;
25637;SDS011;13496;51.040;13.680;2023-07-13T17:05:44;3.03;;;2.10;;
25637;SDS011;13496;51.040;13.680;2023-07-13T17:10:50;2.88;;;2.40;;
25637;SDS011;13496;51.040;13.680;2023-07-13T17:15:56;2.45;;;2.13;;
25637;SDS011;13496;51.040;13.680;2023-07-13T17:20:59;3.10;;;2.25;;
25637;SDS011;13496;51.040;13.680;2023-07-13T17:26:01;4.68;;;1.90;;
25637;SDS011;13496;51.040;13.680;2023-07-13T17:31:03;3.35;;;1.98;;
25637;SDS011;13496;51.040;13.680;2023-07-13T17:36:10;2.08;;;1.70;;
25637;SDS011;13496;51.040;13.680;2023-07-13T17:41:14;2.85;;;1.80;;
25637;SDS011;13496;51.040;13.680;2023-07-13T17:46:17;3.30;;;1.90;;
25637;SDS011;13496;51.040;13.680;2023-07-13T17:51:23;1.70;;;1.60;;
25637;SDS011;13496;51.040;13.680;2023-07-13T17:56:28;2.85;;;1.73;;
25637;SDS011;13496;51.040;13.680;2023-07-13T18:01:34;3.85;;;1.63;;
25637;SDS011;13496;51.040;13.680;2023-07-13T18:06:42;2.70;;;1.65;;
25637;SDS011;13496;51.040;13.680;2023-07-13T18:11:54;2.25;;;1.35;;
25637;SDS011;13496;51.040;13.680;2023-07-13T18:16:57;3.40;;;1.50;;
25637;SDS011;13496;51.040;13.680;2023-07-13T18:22:02;1.95;;;1.55;;
25637;SDS011;13496;51.040;13.680;2023-07-13T18:27:11;3.13;;;1.70;;
25637;SDS011;13496;51.040;13.680;2023-07-13T18:32:17;2.65;;;1.58;;
25637;SDS011;13496;51.040;13.680;2023-07-13T18:37:21;6.45;;;1.67;;
25637;SDS011;13496;51.040;13.680;2023-07-13T18:42:24;4.25;;;1.52;;
25637;SDS011;13496;51.040;13.680;2023-07-13T18:47:26;1.95;;;1.60;;
25637;SDS011;13496;51.040;13.680;2023-07-13T18:52:34;1.90;;;1.52;;
25637;SDS011;13496;51.040;13.680;2023-07-13T18:57:35;5.13;;;1.70;;
25637;SDS011;13496;51.040;13.680;2023-07-13T19:02:37;1.85;;;1.45;;
25637;SDS011;13496;51.040;13.680;2023-07-13T19:07:39;1.70;;;1.50;;
25637;SDS011;13496;51.040;13.680;2023-07-13T19:12:43;2.58;;;1.85;;
25637;SDS011;13496;51.040;13.680;2023-07-13T19:17:46;2.78;;;1.98;;
25637;SDS011;13496;51.040;13.680;2023-07-13T19:22:49;4.88;;;4.32;;
25637;SDS011;13496;51.040;13.680;2023-07-13T19:27:56;3.05;;;2.85;;
25637;SDS011;13496;51.040;13.680;2023-07-13T19:33:08;3.45;;;2.75;;
25637;SDS011;13496;51.040;13.680;2023-07-13T19:38:16;4.85;;;3.00;;
25637;SDS011;13496;51.040;13.680;2023-07-13T19:43:22;4.53;;;3.17;;
25637;SDS011;13496;51.040;13.680;2023-07-13T19:48:27;4.85;;;2.75;;
25637;SDS011;13496;51.040;13.680;2023-07-13T19:53:29;2.90;;;2.00;;
25637;SDS011;13496;51.040;13.680;2023-07-13T19:58:30;3.60;;;2.40;;
25637;SDS011;13496;51.040;13.680;2023-07-13T20:03:33;2.70;;;1.90;;
25637;SDS011;13496;51.040;13.680;2023-07-13T20:08:35;1.70;;;1.60;;
25637;SDS011;13496;51.040;13.680;2023-07-13T20:13:37;3.22;;;1.88;;
25637;SDS011;13496;51.040;13.680;2023-07-13T20:18:39;3.78;;;1.60;;
25637;SDS011;13496;51.040;13.680;2023-07-13T20:23:42;2.30;;;1.60;;
25637;SDS011;13496;51.040;13.680;2023-07-13T20:28:44;2.78;;;1.67;;
25637;SDS011;13496;51.040;13.680;2023-07-13T20:33:47;2.58;;;1.60;;
25637;SDS011;13496;51.040;13.680;2023-07-13T20:38:48;4.00;;;1.60;;
25637;SDS011;13496;51.040;13.680;2023-07-13T20:43:50;2.83;;;1.90;;
25637;SDS011;13496;51.040;13.680;2023-07-13T20:48:52;2.92;;;1.88;;
25637;SDS011;13496;51.040;13.680;2023-07-13T20:53:54;1.88;;;1.48;;
25637;SDS011;13496;51.040;13.680;2023-07-13T20:58:56;3.40;;;1.42;;
25637;SDS011;13496;51.040;13.680;2023-07-13T21:03:59;4.13;;;1.50;;
25637;SDS011;13496;51.040;13.680;2023-07-13T21:09:05;1.60;;;1.35;;
25637;SDS011;13496;51.040;13.680;2023-07-13T21:14:15;2.45;;;1.60;;
25637;SDS011;13496;51.040;13.680;2023-07-13T21:19:18;4.30;;;1.98;;
25637;SDS011;13496;51.040;13.680;2023-07-13T21:24:20;2.80;;;1.60;;
25637;SDS011;13496;51.040;13.680;2023-07-13T21:29:22;2.72;;;1.75;;
25637;SDS011;13496;51.040;13.680;2023-07-13T21:34:24;5.18;;;1.75;;
25637;SDS011;13496;51.040;13.680;2023-07-13T21:39:25;3.10;;;1.60;;
25637;SDS011;13496;51.040;13.680;2023-07-13T21:44:28;4.65;;;2.17;;
25637;SDS011;13496;51.040;13.680;2023-07-13T21:49:32;1.92;;;1.70;;
25637;SDS011;13496;51.040;13.680;2023-07-13T21:54:33;3.08;;;1.80;;
25637;SDS011;13496;51.040;13.680;2023-07-13T21:59:35;3.45;;;1.77;;
25637;SDS011;13496;51.040;13.680;2023-07-13T22:04:37;1.90;;;1.48;;
25637;SDS011;13496;51.040;13.680;2023-07-13T22:09:38;3.50;;;1.90;;
25637;SDS011;13496;51.040;13.680;2023-07-13T22:14:40;4.63;;;1.95;;
25637;SDS011;13496;51.040;13.680;2023-07-13T22:19:42;2.30;;;1.90;;
25637;SDS011;13496;51.040;13.680;2023-07-13T22:24:44;2.78;;;1.90;;
25637;SDS011;13496;51.040;13.680;2023-07-13T22:29:45;3.58;;;2.25;;
25637;SDS011;13496;51.040;13.680;2023-07-13T22:34:47;3.13;;;1.70;;
25637;SDS011;13496;51.040;13.680;2023-07-13T22:39:49;3.15;;;2.25;;
25637;SDS011;13496;51.040;13.680;2023-07-13T22:44:51;2.90;;;2.10;;
25637;SDS011;13496;51.040;13.680;2023-07-13T22:49:52;3.15;;;1.88;;
25637;SDS011;13496;51.040;13.680;2023-07-13T22:54:54;2.95;;;1.83;;
25637;SDS011;13496;51.040;13.680;2023-07-13T22:59:56;3.88;;;2.20;;
25637;SDS011;13496;51.040;13.680;2023-07-13T23:04:57;3.22;;;1.80;;
25637;SDS011;13496;51.040;13.680;2023-07-13T23:10:00;2.88;;;1.55;;
25637;SDS011;13496;51.040;13.680;2023-07-13T23:15:02;2.92;;;1.92;;
25637;SDS011;13496;51.040;13.680;2023-07-13T23:20:23;2.13;;;1.85;;
25637;SDS011;13496;51.040;13.680;2023-07-13T23:25:30;3.22;;;2.05;;
25637;SDS011;13496;51.040;13.680;2023-07-13T23:30:35;4.55;;;1.85;;
25637;SDS011;13496;51.040;13.680;2023-07-13T23:35:44;4.00;;;2.03;;
25637;SDS011;13496;51.040;13.680;2023-07-13T23:40:47;3.08;;;1.98;;
25637;SDS011;13496;51.040;13.680;2023-07-13T23:45:48;2.40;;;2.05;;
25637;SDS011;13496;51.040;13.680;2023-07-13T23:50:50;5.90;;;1.83;;
25637;SDS011;13496;51.040;13.680;2023-07-13T23:55:53;2.38;;;1.90;;
